createdAt,value
2023-02-05T00:01:57.202Z,16.90
2023-02-05T00:04:24.458Z,16.30
2023-02-05T00:06:51.635Z,16.73
2023-02-05T00:09:18.679Z,18.77
2023-02-05T00:11:45.665Z,16.77
2023-02-05T00:14:12.838Z,16.93
2023-02-05T00:16:40.018Z,17.30
2023-02-05T00:19:07.079Z,15.87
2023-02-05T00:21:34.246Z,16.50
2023-02-05T00:24:01.278Z,16.07
2023-02-05T00:26:28.355Z,16.00
2023-02-05T00:28:55.481Z,15.23
2023-02-05T00:31:23.723Z,15.93
2023-02-05T00:33:52.319Z,15.27
2023-02-05T00:36:21.235Z,14.43
2023-02-05T00:38:48.783Z,13.97
2023-02-05T00:41:16.807Z,16.60
2023-02-05T00:43:44.475Z,15.83
2023-02-05T00:46:13.284Z,17.10
2023-02-05T00:48:41.591Z,14.13
2023-02-05T00:51:10.088Z,14.40
2023-02-05T00:53:37.536Z,11.90
2023-02-05T00:56:05.312Z,12.53
2023-02-05T00:58:32.636Z,10.20
2023-02-05T01:00:59.769Z,10.23
2023-02-05T01:03:26.847Z,10.57
2023-02-05T01:05:53.903Z,9.33
2023-02-05T01:08:20.983Z,9.87
2023-02-05T01:10:50.343Z,9.80
2023-02-05T01:13:19.193Z,9.40
2023-02-05T01:15:46.834Z,9.40
2023-02-05T01:18:14.387Z,8.43
2023-02-05T01:20:42.828Z,7.70
2023-02-05T01:23:11.585Z,7.73
2023-02-05T01:25:39.294Z,8.20
2023-02-05T01:28:07.033Z,8.00
2023-02-05T01:30:35.631Z,7.63
2023-02-05T01:33:03.617Z,7.37
2023-02-05T01:35:30.770Z,8.10
2023-02-05T01:37:57.849Z,7.07
2023-02-05T01:40:24.946Z,7.40
2023-02-05T01:42:52.060Z,7.23
2023-02-05T01:45:22.018Z,7.33
2023-02-05T01:47:56.188Z,7.53
2023-02-05T01:50:40.347Z,6.73
2023-02-05T01:53:19.045Z,7.13
2023-02-05T01:55:54.226Z,7.30
2023-02-05T01:58:21.643Z,6.60
2023-02-05T02:00:48.966Z,6.80
2023-02-05T02:03:16.342Z,6.67
2023-02-05T02:05:43.501Z,6.67
2023-02-05T02:08:13.524Z,6.53
2023-02-05T02:10:43.559Z,6.90
2023-02-05T02:13:12.514Z,6.27
2023-02-05T02:15:41.203Z,5.87
2023-02-05T02:18:27.350Z,6.13
2023-02-05T02:21:13.394Z,6.10
2023-02-05T02:24:36.881Z,5.63
2023-02-05T02:27:18.645Z,5.67
2023-02-05T02:29:58.867Z,5.47
2023-02-05T02:33:04.319Z,5.50
2023-02-05T02:35:57.749Z,5.43
2023-02-05T02:39:01.114Z,5.60
2023-02-05T02:42:02.255Z,5.77
2023-02-05T02:44:44.803Z,4.60
2023-02-05T02:47:26.889Z,5.70
2023-02-05T02:50:10.354Z,4.57
2023-02-05T02:52:44.038Z,5.17
2023-02-05T02:55:15.807Z,4.90
2023-02-05T02:57:45.793Z,5.67
2023-02-05T03:00:20.402Z,4.20
2023-02-05T03:02:50.396Z,4.80
2023-02-05T03:05:21.738Z,5.07
2023-02-05T03:07:56.984Z,5.13
2023-02-05T03:10:44.510Z,4.27
2023-02-05T03:13:12.530Z,4.80
2023-02-05T03:15:43.865Z,4.57
2023-02-05T03:18:13.906Z,4.60
2023-02-05T03:21:16.698Z,5.10
2023-02-05T03:23:44.374Z,4.87
2023-02-05T03:26:33.016Z,4.70
2023-02-05T03:29:04.974Z,4.97
2023-02-05T03:32:00.176Z,6.27
2023-02-05T03:34:51.652Z,6.57
2023-02-05T03:37:27.572Z,6.90
2023-02-05T03:40:06.215Z,8.87
2023-02-05T03:43:12.768Z,8.57
2023-02-05T03:46:27.387Z,11.33
2023-02-05T03:49:05.284Z,10.53
2023-02-05T03:51:48.646Z,9.43
2023-02-05T03:54:26.262Z,8.37
2023-02-05T03:57:21.440Z,6.67
2023-02-05T03:59:50.232Z,6.50
2023-02-05T04:02:19.021Z,6.50
2023-02-05T04:04:46.209Z,5.77
2023-02-05T04:07:13.579Z,5.47
2023-02-05T04:09:40.619Z,5.43
2023-02-05T04:12:07.808Z,5.40
2023-02-05T04:14:34.854Z,5.53
2023-02-05T04:17:01.968Z,5.35
2023-02-05T04:19:29.068Z,5.60
2023-02-05T04:21:56.048Z,5.10
2023-02-05T04:24:23.193Z,7.30
2023-02-05T04:26:51.055Z,8.03
2023-02-05T04:29:18.042Z,8.03
2023-02-05T04:31:45.133Z,8.60
2023-02-05T04:34:12.347Z,8.00
2023-02-05T04:36:39.680Z,8.97
2023-02-05T04:39:06.729Z,8.03
2023-02-05T04:41:33.873Z,9.07
2023-02-05T04:44:00.872Z,8.27
2023-02-05T04:46:27.869Z,7.77
2023-02-05T04:48:54.875Z,7.33
2023-02-05T04:51:21.879Z,7.57
2023-02-05T04:53:48.893Z,6.87
2023-02-05T04:56:18.041Z,7.07
2023-02-05T04:58:46.216Z,7.03
2023-02-05T05:01:20.265Z,7.47
2023-02-05T05:03:47.938Z,7.33
2023-02-05T05:06:17.648Z,7.20
2023-02-05T05:08:44.989Z,5.77
2023-02-05T05:11:16.241Z,6.20
2023-02-05T05:13:44.192Z,6.50
2023-02-05T05:16:12.344Z,6.93
2023-02-05T05:18:40.456Z,5.97
2023-02-05T05:21:08.427Z,6.70
2023-02-05T05:23:36.780Z,5.83
2023-02-05T05:26:09.714Z,5.87
2023-02-05T05:28:37.513Z,4.73
2023-02-05T05:31:11.424Z,5.20
2023-02-05T05:33:38.907Z,4.83
2023-02-05T05:36:07.253Z,4.37
2023-02-05T05:38:34.645Z,4.87
2023-02-05T05:41:20.488Z,4.13
2023-02-05T05:43:47.793Z,4.07
2023-02-05T05:46:33.720Z,4.40
2023-02-05T05:49:02.524Z,4.47
2023-02-05T05:51:31.143Z,4.30
2023-02-05T05:53:58.261Z,4.37
2023-02-05T05:56:25.320Z,4.83
2023-02-05T05:58:52.738Z,4.93
2023-02-05T06:01:22.104Z,5.80
2023-02-05T06:03:50.384Z,6.57
2023-02-05T06:06:17.521Z,6.53
2023-02-05T06:08:44.666Z,6.60
2023-02-05T06:11:12.142Z,6.70
2023-02-05T06:13:39.245Z,7.23
2023-02-05T06:16:06.795Z,7.43
2023-02-05T06:18:34.098Z,7.53
2023-02-05T06:21:02.278Z,8.63
2023-02-05T06:23:29.352Z,9.53
2023-02-05T06:25:56.364Z,9.23
2023-02-05T06:28:23.375Z,8.70
2023-02-05T06:30:50.674Z,8.30
2023-02-05T06:33:17.746Z,8.43
2023-02-05T06:35:44.777Z,7.87
2023-02-05T06:38:11.786Z,7.20
2023-02-05T06:40:38.907Z,8.60
2023-02-05T06:43:06.182Z,8.23
2023-02-05T06:45:33.515Z,8.17
2023-02-05T06:48:01.545Z,8.07
2023-02-05T06:50:28.568Z,7.07
2023-02-05T06:52:55.667Z,6.73
2023-02-05T06:55:22.831Z,7.47
2023-02-05T06:57:49.919Z,7.27
2023-02-05T07:00:17.576Z,6.63
2023-02-05T07:02:44.758Z,6.97
2023-02-05T07:05:11.862Z,6.60
2023-02-05T07:07:39.752Z,7.17
2023-02-05T07:10:07.122Z,6.80
2023-02-05T07:12:34.295Z,6.87
2023-02-05T07:15:01.382Z,6.17
2023-02-05T07:17:28.428Z,6.03
2023-02-05T07:19:55.525Z,7.27
2023-02-05T07:22:22.617Z,8.03
2023-02-05T07:24:49.651Z,8.83
2023-02-05T07:27:16.936Z,9.03
2023-02-05T07:29:43.954Z,10.20
2023-02-05T07:32:11.148Z,8.87
2023-02-05T07:34:38.446Z,7.73
2023-02-05T07:37:05.481Z,7.23
2023-02-05T07:39:33.490Z,6.87
2023-02-05T07:42:01.235Z,8.00
2023-02-05T07:44:28.340Z,7.00
2023-02-05T07:46:55.634Z,6.03
2023-02-05T07:49:23.102Z,5.83
2023-02-05T07:51:50.097Z,6.30
2023-02-05T07:54:17.174Z,6.10
2023-02-05T07:56:44.234Z,5.53
2023-02-05T07:59:13.502Z,5.67
2023-02-05T08:01:40.640Z,5.67
2023-02-05T08:04:08.070Z,6.33
2023-02-05T08:06:35.499Z,5.57
2023-02-05T08:09:02.759Z,5.40
2023-02-05T08:11:32.307Z,5.33
2023-02-05T08:14:00.638Z,5.50
2023-02-05T08:16:27.740Z,5.27
2023-02-05T08:18:54.775Z,5.63
2023-02-05T08:21:22.050Z,4.80
2023-02-05T08:23:49.685Z,4.90
2023-02-05T08:26:17.933Z,6.00
2023-02-05T08:28:46.088Z,6.37
2023-02-05T08:31:17.572Z,6.27
2023-02-05T08:33:45.836Z,7.00
2023-02-05T08:36:12.853Z,6.23
2023-02-05T08:38:39.858Z,7.73
2023-02-05T08:41:12.809Z,7.20
2023-02-05T08:43:46.822Z,6.73
2023-02-05T08:46:17.679Z,6.27
2023-02-05T08:48:45.290Z,6.20
2023-02-05T08:51:15.189Z,6.37
2023-02-05T08:53:42.806Z,6.33
2023-02-05T08:56:10.804Z,6.93
2023-02-05T08:58:39.254Z,5.10
2023-02-05T09:01:15.305Z,5.80
2023-02-05T09:03:42.927Z,5.87
2023-02-05T09:06:15.146Z,5.73
2023-02-05T09:08:42.918Z,5.53
2023-02-05T09:11:10.813Z,6.50
2023-02-05T09:13:38.445Z,6.63
2023-02-05T09:16:05.706Z,6.67
2023-02-05T09:18:32.694Z,7.33
2023-02-05T09:20:59.748Z,6.90
2023-02-05T09:23:26.802Z,7.13
2023-02-05T09:25:53.878Z,7.60
2023-02-05T09:28:20.904Z,6.53
2023-02-05T09:30:48.004Z,7.43
2023-02-05T09:33:15.070Z,7.77
2023-02-05T09:35:43.029Z,7.53
2023-02-05T09:38:14.759Z,8.07
2023-02-05T09:41:01.609Z,7.70
2023-02-05T09:43:57.782Z,7.40
2023-02-05T09:46:49.507Z,5.27
2023-02-05T09:49:42.347Z,4.70
2023-02-05T09:52:19.698Z,4.17
2023-02-05T09:55:19.724Z,4.60
2023-02-05T09:57:46.797Z,5.33
2023-02-05T10:00:43.778Z,5.70
2023-02-05T10:03:28.616Z,5.30
2023-02-05T10:06:11.284Z,5.40
2023-02-05T10:09:05.370Z,4.70
2023-02-05T10:11:52.839Z,4.53
2023-02-05T10:14:26.729Z,4.60
2023-02-05T10:17:33.770Z,4.20
2023-02-05T10:20:35.363Z,4.17
2023-02-05T10:23:16.999Z,4.23
2023-02-05T10:26:15.812Z,4.40
2023-02-05T10:28:55.517Z,4.50
2023-02-05T10:31:42.261Z,4.27
2023-02-05T10:34:36.445Z,4.23
2023-02-05T10:37:12.100Z,3.80
2023-02-05T10:39:39.491Z,3.93
2023-02-05T10:42:40.992Z,4.20
2023-02-05T10:45:21.325Z,4.90
2023-02-05T10:48:25.532Z,4.50
2023-02-05T10:50:58.179Z,4.27
2023-02-05T10:53:27.613Z,6.43
2023-02-05T10:55:56.447Z,6.70
2023-02-05T10:58:52.002Z,5.50
2023-02-05T11:01:32.780Z,5.70
2023-02-05T11:04:15.190Z,4.73
2023-02-05T11:06:51.473Z,4.63
2023-02-05T11:09:24.248Z,5.27
2023-02-05T11:12:00.842Z,5.43
2023-02-05T11:14:36.332Z,6.10
2023-02-05T11:17:37.559Z,6.03
2023-02-05T11:20:17.470Z,7.33
2023-02-05T11:22:46.332Z,6.43
2023-02-05T11:25:21.425Z,5.93
2023-02-05T11:28:04.074Z,6.50
2023-02-05T11:30:50.114Z,6.90
2023-02-05T11:33:27.780Z,5.97
2023-02-05T11:36:21.551Z,5.43
2023-02-05T11:38:57.805Z,5.97
2023-02-05T11:41:31.136Z,6.43
2023-02-05T11:44:01.003Z,6.03
2023-02-05T11:46:35.058Z,5.47
2023-02-05T11:49:05.089Z,4.87
2023-02-05T11:51:52.995Z,5.50
2023-02-05T11:54:34.312Z,6.10
2023-02-05T11:57:22.250Z,5.30
2023-02-05T12:00:20.277Z,5.23
2023-02-05T12:02:53.879Z,5.23
2023-02-05T12:05:28.874Z,6.50
2023-02-05T12:08:03.218Z,5.47
2023-02-05T12:11:53.132Z,5.60
2023-02-05T12:14:43.878Z,5.43
2023-02-05T12:17:19.830Z,4.83
2023-02-05T12:20:17.849Z,5.40
2023-02-05T12:23:22.608Z,5.70
2023-02-05T12:26:30.708Z,4.80
2023-02-05T12:29:23.803Z,5.10
2023-02-05T12:32:21.524Z,5.03
2023-02-05T12:35:03.936Z,5.07
2023-02-05T12:38:31.468Z,4.93
2023-02-05T12:41:20.982Z,3.93
2023-02-05T12:43:50.214Z,3.60
2023-02-05T12:46:57.178Z,3.83
2023-02-05T12:49:42.984Z,3.13
2023-02-05T12:52:39.108Z,3.43
2023-02-05T12:55:41.001Z,3.80
2023-02-05T12:58:13.088Z,3.90
2023-02-05T13:00:46.035Z,3.83
2023-02-05T13:03:36.466Z,3.60
2023-02-05T13:06:14.470Z,4.00
2023-02-05T13:08:52.141Z,5.23
2023-02-05T13:11:36.411Z,4.43
2023-02-05T13:14:52.863Z,4.23
2023-02-05T13:17:31.133Z,4.00
2023-02-05T13:20:50.783Z,4.20
2023-02-05T13:23:37.530Z,3.80
2023-02-05T13:26:27.568Z,4.00
2023-02-05T13:28:59.688Z,3.60
2023-02-05T13:31:49.000Z,3.70
2023-02-05T13:34:17.810Z,3.27
2023-02-05T13:37:15.326Z,4.07
2023-02-05T13:40:29.709Z,3.03
2023-02-05T13:43:07.048Z,3.20
2023-02-05T13:45:56.597Z,3.67
2023-02-05T13:48:42.228Z,4.13
2023-02-05T13:51:38.983Z,3.00
2023-02-05T13:54:33.592Z,3.07
2023-02-05T13:57:48.278Z,3.57
2023-02-05T14:00:16.955Z,3.30
2023-02-05T14:02:49.465Z,4.50
2023-02-05T14:05:27.334Z,4.00
2023-02-05T14:07:57.763Z,3.40
2023-02-05T14:10:32.395Z,3.73
2023-02-05T14:13:25.462Z,3.80
2023-02-05T14:15:57.559Z,3.93
2023-02-05T14:18:48.526Z,5.07
2023-02-05T14:21:30.503Z,4.33
2023-02-05T14:24:25.369Z,4.27
2023-02-05T14:26:59.638Z,5.67
2023-02-05T14:29:48.205Z,5.20
2023-02-05T14:32:27.494Z,5.50
2023-02-05T14:35:40.104Z,4.00
2023-02-05T14:38:33.536Z,4.23
2023-02-05T14:41:13.768Z,4.10
2023-02-05T14:43:44.200Z,3.30
2023-02-05T14:46:44.477Z,3.57
2023-02-05T14:49:24.961Z,4.33
2023-02-05T14:52:17.864Z,3.93
2023-02-05T14:55:02.397Z,4.47
2023-02-05T14:57:54.424Z,4.47
2023-02-05T15:00:26.168Z,5.00
2023-02-05T15:03:05.981Z,4.90
2023-02-05T15:05:53.957Z,4.33
2023-02-05T15:08:36.006Z,5.40
2023-02-05T15:11:22.960Z,6.27
2023-02-05T15:14:19.502Z,7.17
2023-02-05T15:17:07.376Z,8.67
2023-02-05T15:19:51.625Z,8.33
2023-02-05T15:22:36.735Z,9.60
2023-02-05T15:25:16.797Z,9.87
2023-02-05T15:27:54.392Z,10.23
2023-02-05T15:30:28.414Z,9.00
2023-02-05T15:33:08.401Z,7.20
2023-02-05T15:35:37.689Z,6.50
2023-02-05T15:38:27.380Z,5.90
2023-02-05T15:40:54.663Z,5.90
2023-02-05T15:43:27.149Z,5.00
2023-02-05T15:46:05.518Z,5.50
2023-02-05T15:48:35.471Z,5.40
2023-02-05T15:51:05.296Z,4.87
2023-02-05T15:53:43.027Z,5.10
2023-02-05T15:56:14.825Z,4.80
2023-02-05T15:58:54.923Z,5.23
2023-02-05T16:01:31.777Z,4.53
2023-02-05T16:03:59.354Z,4.87
2023-02-05T16:06:30.084Z,5.17
2023-02-05T16:08:57.734Z,4.90
2023-02-05T16:11:35.340Z,9.83
2023-02-05T16:14:15.298Z,9.00
2023-02-05T16:17:19.583Z,7.33
2023-02-05T16:20:19.956Z,6.47
2023-02-05T16:23:09.145Z,6.60
2023-02-05T16:25:47.305Z,5.87
2023-02-05T16:28:23.284Z,5.27
2023-02-05T16:30:55.266Z,5.57
2023-02-05T16:33:28.016Z,5.43
2023-02-05T16:35:56.587Z,5.57
2023-02-05T16:38:23.788Z,5.13
2023-02-05T16:40:54.932Z,5.60
2023-02-05T16:43:39.653Z,5.33
2023-02-05T16:46:06.554Z,4.40
2023-02-05T16:48:46.807Z,4.53
2023-02-05T16:51:45.359Z,4.63
2023-02-05T16:54:12.345Z,4.60
2023-02-05T16:57:04.832Z,4.70
2023-02-05T17:00:06.462Z,4.73
2023-02-05T17:02:41.778Z,5.63
2023-02-05T17:05:36.484Z,6.03
2023-02-05T17:08:06.976Z,5.93
2023-02-05T17:10:59.576Z,6.80
2023-02-05T17:13:32.369Z,7.03
2023-02-05T17:16:29.892Z,8.17
2023-02-05T17:18:57.881Z,7.43
2023-02-05T17:21:27.149Z,8.43
2023-02-05T17:23:57.167Z,7.77
2023-02-05T17:26:26.194Z,8.43
2023-02-05T17:28:59.961Z,6.97
2023-02-05T17:31:29.231Z,8.50
2023-02-05T17:33:58.994Z,9.43
2023-02-05T17:36:26.665Z,8.60
2023-02-05T17:38:54.411Z,8.50
2023-02-05T17:41:46.417Z,9.10
2023-02-05T17:44:17.856Z,9.23
2023-02-05T17:46:45.213Z,7.70
2023-02-05T17:49:12.302Z,9.10
2023-02-05T17:51:42.693Z,8.83
2023-02-05T17:54:19.833Z,8.70
2023-02-05T17:56:48.409Z,9.40
2023-02-05T17:59:19.925Z,9.23
2023-02-05T18:01:48.980Z,10.00
2023-02-05T18:04:18.562Z,9.60
2023-02-05T18:06:49.037Z,9.83
2023-02-05T18:09:16.582Z,9.30
2023-02-05T18:11:43.585Z,9.87
2023-02-05T18:14:11.025Z,10.63
2023-02-05T18:16:38.382Z,10.37
2023-02-05T18:19:05.740Z,10.23
2023-02-05T18:21:33.068Z,11.10
2023-02-05T18:24:00.165Z,10.67
2023-02-05T18:26:27.233Z,10.73
2023-02-05T18:28:54.610Z,11.10
2023-02-05T18:31:21.979Z,10.17
2023-02-05T18:33:51.578Z,9.47
2023-02-05T18:36:18.668Z,11.27
2023-02-05T18:38:45.871Z,11.17
2023-02-05T18:41:25.905Z,9.63
2023-02-05T18:43:56.675Z,10.87
2023-02-05T18:46:25.117Z,9.47
2023-02-05T18:48:54.421Z,10.13
2023-02-05T18:51:23.120Z,10.10
2023-02-05T18:53:50.758Z,11.00
2023-02-05T18:56:27.084Z,11.10
2023-02-05T18:59:02.201Z,14.83
2023-02-05T19:01:32.007Z,14.40
2023-02-05T19:04:07.856Z,13.43
2023-02-05T19:06:35.271Z,15.20
2023-02-05T19:09:03.514Z,14.53
2023-02-05T19:11:31.387Z,15.40
2023-02-05T19:14:04.926Z,15.60
2023-02-05T19:16:34.602Z,16.80
2023-02-05T19:19:03.105Z,16.33
2023-02-05T19:21:31.530Z,15.57
2023-02-05T19:24:05.480Z,15.53
2023-02-05T19:26:35.202Z,16.10
2023-02-05T19:29:09.052Z,15.90
2023-02-05T19:31:37.542Z,16.57
2023-02-05T19:34:05.857Z,14.33
2023-02-05T19:36:33.570Z,14.80
2023-02-05T19:39:02.575Z,15.70
2023-02-05T19:41:31.732Z,15.93
2023-02-05T19:44:02.373Z,15.50
2023-02-05T19:46:33.151Z,17.23
2023-02-05T19:49:05.049Z,15.23
2023-02-05T19:51:32.212Z,15.83
2023-02-05T19:54:03.097Z,15.83
2023-02-05T19:56:30.920Z,16.53
2023-02-05T19:58:58.064Z,16.60
2023-02-05T20:01:32.098Z,16.13
2023-02-05T20:04:11.856Z,17.67
2023-02-05T20:06:40.461Z,17.53
2023-02-05T20:09:10.877Z,16.33
2023-02-05T20:11:43.049Z,17.10
2023-02-05T20:14:11.033Z,17.10
2023-02-05T20:16:40.402Z,17.23
2023-02-05T20:19:10.521Z,17.23
2023-02-05T20:21:38.591Z,18.47
2023-02-05T20:24:07.491Z,16.73
2023-02-05T20:26:36.155Z,17.90
2023-02-05T20:29:23.275Z,18.63
2023-02-05T20:31:52.401Z,18.03
2023-02-05T20:34:30.437Z,17.70
2023-02-05T20:37:04.801Z,18.33
2023-02-05T20:39:34.864Z,19.27
2023-02-05T20:42:02.414Z,18.03
2023-02-05T20:44:33.926Z,19.03
2023-02-05T20:47:01.019Z,19.17
2023-02-05T20:49:28.631Z,18.43
2023-02-05T20:51:55.768Z,18.13
2023-02-05T20:54:23.595Z,18.40
2023-02-05T20:56:57.017Z,18.30
2023-02-05T20:59:24.785Z,17.80
2023-02-05T21:01:52.352Z,16.90
2023-02-05T21:04:22.416Z,18.07
2023-02-05T21:06:49.803Z,18.50
2023-02-05T21:09:17.281Z,17.93
2023-02-05T21:11:44.326Z,20.50
2023-02-05T21:14:11.652Z,17.83
2023-02-05T21:16:40.082Z,17.77
2023-02-05T21:19:08.786Z,18.03
2023-02-05T21:21:37.366Z,18.20
2023-02-05T21:24:08.826Z,18.17
2023-02-05T21:26:47.254Z,18.57
2023-02-05T21:29:18.272Z,19.07
2023-02-05T21:31:50.141Z,20.33
2023-02-05T21:34:21.844Z,19.00
2023-02-05T21:36:49.950Z,19.03
2023-02-05T21:39:20.053Z,18.97
2023-02-05T21:41:47.801Z,18.57
2023-02-05T21:44:14.915Z,20.30
2023-02-05T21:46:42.155Z,19.13
2023-02-05T21:49:11.579Z,19.10
2023-02-05T21:51:38.699Z,20.10
2023-02-05T21:54:06.783Z,19.03
2023-02-05T21:56:42.530Z,20.33
2023-02-05T21:59:11.936Z,20.83
2023-02-05T22:01:39.758Z,22.03
2023-02-05T22:04:14.732Z,21.70
2023-02-05T22:06:42.521Z,22.20
2023-02-05T22:09:13.550Z,22.53
2023-02-05T22:11:41.302Z,22.50
2023-02-05T22:14:10.321Z,22.97
2023-02-05T22:16:39.278Z,23.13
2023-02-05T22:19:07.970Z,23.10
2023-02-05T22:21:41.536Z,22.23
2023-02-05T22:24:13.250Z,21.63
2023-02-05T22:26:41.566Z,21.37
2023-02-05T22:29:12.042Z,20.87
2023-02-05T22:31:39.069Z,20.77
2023-02-05T22:34:06.564Z,21.90
2023-02-05T22:36:35.595Z,22.50
2023-02-05T22:39:05.006Z,21.97
2023-02-05T22:41:35.997Z,20.50
2023-02-05T22:44:05.425Z,21.87
2023-02-05T22:46:37.213Z,21.50
2023-02-05T22:49:05.044Z,22.97
2023-02-05T22:51:37.299Z,21.37
2023-02-05T22:54:04.691Z,21.77
2023-02-05T22:56:32.914Z,22.23
2023-02-05T22:59:02.960Z,22.40
2023-02-05T23:01:34.167Z,21.10
2023-02-05T23:04:03.781Z,21.80
2023-02-05T23:06:36.166Z,21.93
2023-02-05T23:09:11.239Z,22.27
2023-02-05T23:11:38.662Z,23.47
2023-02-05T23:14:07.848Z,21.73
2023-02-05T23:16:39.177Z,21.93
2023-02-05T23:19:20.018Z,22.23
2023-02-05T23:21:48.790Z,23.17
2023-02-05T23:24:17.090Z,23.90
2023-02-05T23:26:48.024Z,25.73
2023-02-05T23:29:16.796Z,24.57
2023-02-05T23:31:43.877Z,23.00
2023-02-05T23:34:12.075Z,24.93
2023-02-05T23:36:39.507Z,24.80
2023-02-05T23:39:06.629Z,24.70
2023-02-05T23:41:36.981Z,25.13
2023-02-05T23:44:08.418Z,24.70
2023-02-05T23:46:36.917Z,27.90
2023-02-05T23:49:05.210Z,22.60
2023-02-05T23:51:32.925Z,25.13
2023-02-05T23:54:00.333Z,25.47
2023-02-05T23:56:27.693Z,24.57
2023-02-05T23:58:55.037Z,26.87
